createdAt,value
2023-05-14T00:00:36.519Z,8.17
2023-05-14T00:03:07.496Z,8.13
2023-05-14T00:05:37.292Z,8.01
2023-05-14T00:08:07.207Z,8.05
2023-05-14T00:10:36.638Z,8.02
2023-05-14T00:13:07.363Z,8.08
2023-05-14T00:15:36.828Z,8.00
2023-05-14T00:18:07.366Z,7.96
2023-05-14T00:20:36.963Z,8.00
2023-05-14T00:23:06.394Z,8.05
2023-05-14T00:25:35.936Z,8.09
2023-05-14T00:28:07.164Z,8.10
2023-05-14T00:30:37.501Z,8.10
2023-05-14T00:33:07.084Z,8.02
2023-05-14T00:35:36.709Z,8.04
2023-05-14T00:38:06.592Z,8.06
2023-05-14T00:40:36.287Z,8.08
2023-05-14T00:43:07.208Z,8.04
2023-05-14T00:45:36.670Z,7.98
2023-05-14T00:49:40.189Z,7.77
2023-05-14T00:52:10.095Z,7.66
2023-05-14T00:54:39.767Z,7.64
2023-05-14T00:57:09.384Z,7.68
2023-05-14T00:59:41.125Z,7.64
2023-05-14T01:02:10.646Z,7.51
2023-05-14T01:04:41.974Z,7.50
2023-05-14T01:07:19.781Z,7.46
2023-05-14T01:09:55.522Z,7.26
2023-05-14T01:12:35.567Z,7.18
2023-05-14T01:15:13.144Z,7.31
2023-05-14T01:17:50.666Z,7.28
2023-05-14T01:20:22.254Z,7.16
2023-05-14T01:22:53.331Z,7.05
2023-05-14T01:25:22.999Z,7.02
2023-05-14T01:28:02.482Z,7.11
2023-05-14T01:30:37.677Z,7.01
2023-05-14T01:33:13.040Z,6.84
2023-05-14T01:35:43.471Z,6.76
2023-05-14T01:38:18.697Z,6.77
2023-05-14T01:40:49.500Z,6.83
2023-05-14T01:43:19.795Z,6.87
2023-05-14T01:45:49.325Z,6.73
2023-05-14T01:48:18.727Z,6.71
2023-05-14T01:50:48.167Z,6.70
2023-05-14T01:53:19.187Z,6.77
2023-05-14T01:55:48.564Z,6.88
2023-05-14T01:58:18.027Z,6.95
2023-05-14T02:00:47.489Z,6.95
2023-05-14T02:03:16.993Z,6.83
2023-05-14T02:05:46.366Z,6.82
2023-05-14T02:08:16.085Z,6.91
2023-05-14T02:10:46.978Z,7.00
2023-05-14T02:13:16.495Z,7.04
2023-05-14T02:15:46.028Z,6.99
2023-05-14T02:18:15.723Z,6.85
2023-05-14T02:20:45.315Z,6.89
2023-05-14T02:23:14.948Z,6.75
2023-05-14T02:25:45.877Z,6.82
2023-05-14T02:28:15.242Z,6.91
2023-05-14T02:30:46.338Z,6.92
2023-05-14T02:33:16.079Z,7.01
2023-05-14T02:35:45.678Z,7.04
2023-05-14T02:38:15.268Z,7.12
2023-05-14T02:40:46.123Z,7.16
2023-05-14T02:43:15.536Z,7.13
2023-05-14T02:45:46.418Z,7.15
2023-05-14T02:48:15.935Z,7.20
2023-05-14T02:50:45.327Z,7.22
2023-05-14T02:53:14.867Z,7.21
2023-05-14T02:55:45.689Z,7.17
2023-05-14T02:58:15.296Z,7.19
2023-05-14T03:00:44.737Z,7.24
2023-05-14T03:03:14.692Z,7.24
2023-05-14T03:05:44.626Z,7.30
2023-05-14T03:08:14.017Z,7.33
2023-05-14T03:10:43.512Z,7.34
2023-05-14T03:13:17.915Z,7.38
2023-05-14T03:15:47.913Z,7.44
2023-05-14T03:18:17.413Z,7.41
2023-05-14T03:20:46.794Z,7.43
2023-05-14T03:23:17.140Z,7.49
2023-05-14T03:25:46.406Z,7.54
2023-05-14T03:28:17.364Z,7.56
2023-05-14T03:30:46.981Z,7.57
2023-05-14T03:33:16.626Z,7.53
2023-05-14T03:35:46.039Z,7.53
2023-05-14T03:38:15.370Z,7.59
2023-05-14T03:40:45.538Z,7.66
2023-05-14T03:43:16.608Z,7.71
2023-05-14T03:45:46.205Z,7.67
2023-05-14T03:50:39.425Z,7.79
2023-05-14T03:53:08.685Z,7.76
2023-05-14T03:55:38.111Z,7.79
2023-05-14T03:58:14.051Z,7.82
2023-05-14T04:00:43.887Z,7.86
2023-05-14T04:03:13.402Z,7.95
2023-05-14T04:05:44.541Z,8.00
2023-05-14T04:08:13.861Z,8.06
2023-05-14T04:10:43.949Z,8.11
2023-05-14T04:13:13.363Z,8.14
2023-05-14T04:15:42.880Z,8.18
2023-05-14T04:18:13.567Z,8.22
2023-05-14T04:20:44.418Z,8.26
2023-05-14T04:23:14.062Z,8.35
2023-05-14T04:25:43.428Z,8.45
2023-05-14T04:28:12.935Z,8.50
2023-05-14T04:30:42.249Z,8.61
2023-05-14T04:33:11.713Z,8.77
2023-05-14T04:35:42.725Z,8.94
2023-05-14T04:38:13.042Z,9.20
2023-05-14T04:40:42.964Z,9.40
2023-05-14T04:43:12.710Z,9.53
2023-05-14T04:45:43.400Z,9.69
2023-05-14T04:48:12.898Z,9.87
2023-05-14T04:50:44.537Z,10.08
2023-05-14T04:53:14.121Z,10.28
2023-05-14T04:55:43.650Z,10.44
2023-05-14T04:58:13.084Z,10.57
2023-05-14T05:00:42.624Z,10.73
2023-05-14T05:03:12.032Z,10.85
2023-05-14T05:05:43.016Z,10.96
2023-05-14T05:08:12.845Z,11.06
2023-05-14T05:10:42.161Z,11.15
2023-05-14T05:13:11.982Z,11.24
2023-05-14T05:15:41.523Z,11.29
2023-05-14T05:18:10.995Z,11.36
2023-05-14T05:20:40.467Z,11.41
2023-05-14T05:23:12.162Z,11.44
2023-05-14T05:25:41.804Z,11.46
2023-05-14T05:28:11.088Z,11.47
2023-05-14T05:30:41.186Z,11.49
2023-05-14T05:33:10.782Z,11.53
2023-05-14T05:35:40.715Z,11.57
2023-05-14T05:38:11.619Z,11.63
2023-05-14T05:40:41.166Z,11.67
2023-05-14T05:43:10.558Z,11.69
2023-05-14T05:45:40.162Z,11.70
2023-05-14T05:48:09.810Z,11.65
2023-05-14T05:50:39.424Z,11.54
2023-05-14T05:53:10.451Z,11.47
2023-05-14T05:55:40.008Z,11.48
2023-05-14T05:58:09.369Z,11.47
2023-05-14T06:00:38.925Z,11.46
2023-05-14T06:03:08.329Z,11.49
2023-05-14T06:05:38.019Z,11.56
2023-05-14T06:08:09.986Z,11.63
2023-05-14T06:10:39.562Z,11.68
2023-05-14T06:13:08.951Z,11.71
2023-05-14T06:15:38.348Z,11.76
2023-05-14T06:18:08.027Z,11.77
2023-05-14T06:20:37.724Z,11.73
2023-05-14T06:23:08.080Z,11.78
2023-05-14T06:25:39.161Z,11.79
2023-05-14T06:28:08.645Z,11.73
2023-05-14T06:30:38.198Z,11.65
2023-05-14T06:33:07.661Z,11.62
2023-05-14T06:35:37.239Z,11.59
2023-05-14T06:38:06.769Z,11.52
2023-05-14T06:40:37.766Z,11.45
2023-05-14T06:43:07.704Z,11.43
2023-05-14T06:45:37.475Z,11.40
2023-05-14T06:50:39.158Z,11.44
2023-05-14T06:53:08.541Z,11.51
2023-05-14T06:55:37.998Z,11.54
2023-05-14T06:58:09.236Z,11.59
2023-05-14T07:00:38.617Z,11.60
2023-05-14T07:03:08.173Z,11.56
2023-05-14T07:05:41.133Z,11.56
2023-05-14T07:08:10.414Z,11.53
2023-05-14T07:10:40.367Z,11.61
2023-05-14T07:13:10.674Z,11.67
2023-05-14T07:15:40.129Z,11.63
2023-05-14T07:18:09.621Z,11.52
2023-05-14T07:20:40.447Z,11.48
2023-05-14T07:23:09.848Z,11.45
2023-05-14T07:25:39.263Z,11.43
2023-05-14T07:28:08.572Z,11.41
2023-05-14T07:30:37.946Z,11.40
2023-05-14T07:33:07.449Z,11.40
2023-05-14T07:35:38.562Z,11.41
2023-05-14T07:38:08.055Z,11.44
2023-05-14T07:40:37.508Z,11.43
2023-05-14T07:43:06.920Z,11.38
2023-05-14T07:45:36.445Z,11.49
2023-05-14T07:48:06.411Z,11.50
2023-05-14T07:50:35.846Z,11.52
2023-05-14T07:53:06.758Z,11.51
2023-05-14T07:55:36.121Z,11.53
2023-05-14T07:58:05.600Z,11.49
2023-05-14T08:00:35.131Z,11.42
2023-05-14T08:03:05.523Z,11.23
2023-05-14T08:05:35.153Z,11.12
2023-05-14T08:08:06.346Z,11.01
2023-05-14T08:10:35.993Z,10.94
2023-05-14T08:13:05.521Z,10.94
2023-05-14T08:15:34.870Z,10.94
2023-05-14T08:18:04.636Z,10.97
2023-05-14T08:20:34.190Z,11.00
2023-05-14T08:23:03.540Z,10.92
2023-05-14T08:25:34.457Z,10.92
2023-05-14T08:28:03.872Z,10.89
2023-05-14T08:30:33.283Z,10.87
2023-05-14T08:33:02.821Z,10.83
2023-05-14T08:35:32.188Z,10.82
2023-05-14T08:38:01.493Z,10.81
2023-05-14T08:40:35.378Z,10.78
2023-05-14T08:43:05.132Z,10.76
2023-05-14T08:45:37.387Z,10.72
2023-05-14T08:48:10.287Z,10.69
2023-05-14T08:50:39.773Z,10.67
2023-05-14T08:53:09.236Z,10.62
2023-05-14T08:55:40.595Z,10.55
2023-05-14T08:58:10.128Z,10.46
2023-05-14T09:00:39.603Z,10.44
2023-05-14T09:03:10.093Z,10.40
2023-05-14T09:05:40.043Z,10.38
2023-05-14T09:08:09.583Z,10.31
2023-05-14T09:10:40.579Z,10.14
2023-05-14T09:13:10.425Z,10.01
2023-05-14T09:15:41.584Z,9.93
2023-05-14T09:18:11.111Z,9.90
2023-05-14T09:20:41.375Z,9.94
2023-05-14T09:23:10.767Z,9.91
2023-05-14T09:25:41.633Z,9.92
2023-05-14T09:28:12.125Z,9.99
2023-05-14T09:30:42.038Z,10.06
2023-05-14T09:33:11.754Z,10.01
2023-05-14T09:35:43.605Z,10.02
2023-05-14T09:38:14.234Z,10.05
2023-05-14T09:40:54.593Z,10.02
2023-05-14T09:43:23.951Z,9.99
2023-05-14T09:45:53.465Z,9.98
2023-05-14T09:50:44.960Z,10.24
2023-05-14T09:53:15.028Z,10.43
2023-05-14T09:55:47.341Z,10.57
2023-05-14T09:58:19.290Z,10.54
2023-05-14T10:00:49.447Z,10.57
2023-05-14T10:03:21.096Z,10.69
2023-05-14T10:05:52.551Z,10.71
2023-05-14T10:08:28.795Z,10.67
2023-05-14T10:11:01.105Z,10.75
2023-05-14T10:13:35.189Z,10.82
2023-05-14T10:16:13.222Z,10.87
2023-05-14T10:18:48.869Z,10.91
2023-05-14T10:21:23.576Z,11.01
2023-05-14T10:23:53.819Z,11.08
2023-05-14T10:26:24.101Z,11.09
2023-05-14T10:28:53.685Z,11.04
2023-05-14T10:31:25.912Z,10.93
2023-05-14T10:33:55.786Z,10.88
2023-05-14T10:36:28.005Z,10.79
2023-05-14T10:38:58.924Z,10.84
2023-05-14T10:41:28.440Z,10.86
2023-05-14T10:44:01.050Z,10.89
2023-05-14T10:46:30.297Z,10.87
2023-05-14T10:48:59.771Z,10.85
2023-05-14T10:51:31.615Z,10.81
2023-05-14T10:54:03.500Z,10.85
2023-05-14T10:56:33.038Z,10.86
2023-05-14T10:59:02.731Z,10.85
2023-05-14T11:01:32.281Z,10.79
2023-05-14T11:04:02.097Z,10.78
2023-05-14T11:06:33.650Z,10.75
2023-05-14T11:09:04.175Z,10.82
2023-05-14T11:11:33.666Z,10.82
2023-05-14T11:14:03.585Z,10.78
2023-05-14T11:16:33.828Z,10.82
2023-05-14T11:19:07.517Z,10.88
2023-05-14T11:21:38.930Z,10.85
2023-05-14T11:24:09.183Z,10.82
2023-05-14T11:26:38.750Z,10.86
2023-05-14T11:29:08.360Z,10.89
2023-05-14T11:31:38.400Z,10.94
2023-05-14T11:34:10.360Z,10.99
2023-05-14T11:36:42.626Z,11.01
2023-05-14T11:39:18.760Z,10.98
2023-05-14T11:41:48.278Z,10.94
2023-05-14T11:44:17.670Z,10.94
2023-05-14T11:46:57.697Z,10.92
2023-05-14T11:49:29.309Z,10.92
2023-05-14T11:52:04.870Z,10.84
2023-05-14T11:54:35.826Z,10.75
2023-05-14T11:57:11.079Z,10.75
2023-05-14T11:59:41.255Z,10.69
2023-05-14T12:02:13.936Z,10.59
2023-05-14T12:04:45.236Z,10.56
2023-05-14T12:07:18.831Z,10.52
2023-05-14T12:09:50.980Z,10.47
2023-05-14T12:12:22.502Z,10.51
2023-05-14T12:14:53.548Z,10.56
2023-05-14T12:17:24.651Z,10.46
2023-05-14T12:19:54.757Z,10.50
2023-05-14T12:22:25.864Z,10.52
2023-05-14T12:24:59.868Z,10.65
2023-05-14T12:27:31.335Z,10.79
2023-05-14T12:30:19.851Z,10.95
2023-05-14T12:32:53.227Z,11.11
2023-05-14T12:35:24.037Z,11.22
2023-05-14T12:37:55.076Z,11.37
2023-05-14T12:40:24.692Z,11.54
2023-05-14T12:42:56.070Z,11.54
2023-05-14T12:45:26.437Z,11.60
2023-05-14T12:50:38.968Z,11.51
2023-05-14T12:53:09.423Z,11.50
2023-05-14T12:55:38.800Z,11.49
2023-05-14T12:58:08.266Z,11.46
2023-05-14T13:00:37.618Z,11.42
2023-05-14T13:03:07.045Z,11.36
2023-05-14T13:05:38.039Z,11.34
2023-05-14T13:08:07.500Z,11.44
2023-05-14T13:10:36.881Z,11.50
2023-05-14T13:13:06.199Z,11.58
2023-05-14T13:15:35.601Z,11.81
2023-05-14T13:18:05.227Z,11.91
2023-05-14T13:20:35.361Z,11.85
2023-05-14T13:23:06.299Z,11.69
2023-05-14T13:25:35.904Z,11.59
2023-05-14T13:28:05.365Z,11.60
2023-05-14T13:30:34.675Z,11.50
2023-05-14T13:33:04.281Z,11.53
2023-05-14T13:35:34.811Z,11.48
2023-05-14T13:38:05.783Z,11.42
2023-05-14T13:40:35.173Z,11.38
2023-05-14T13:43:04.670Z,11.35
2023-05-14T13:45:34.082Z,11.21
2023-05-14T13:48:03.481Z,11.14
2023-05-14T13:50:33.010Z,11.16
2023-05-14T13:53:02.483Z,11.24
2023-05-14T13:55:33.369Z,11.27
2023-05-14T13:58:04.651Z,11.28
2023-05-14T14:00:34.148Z,11.26
2023-05-14T14:03:03.509Z,11.24
2023-05-14T14:05:33.165Z,11.37
2023-05-14T14:08:17.840Z,11.44
2023-05-14T14:10:55.480Z,11.48
2023-05-14T14:13:25.164Z,11.45
2023-05-14T14:15:54.513Z,11.46
2023-05-14T14:18:23.894Z,11.52
2023-05-14T14:20:53.563Z,11.53
2023-05-14T14:23:22.882Z,11.54
2023-05-14T14:25:53.870Z,11.54
2023-05-14T14:28:23.211Z,11.58
2023-05-14T14:30:53.021Z,11.50
2023-05-14T14:33:22.364Z,11.36
2023-05-14T14:35:51.916Z,11.35
2023-05-14T14:38:21.443Z,11.32
2023-05-14T14:40:52.548Z,11.27
2023-05-14T14:43:21.943Z,11.20
2023-05-14T14:45:51.589Z,11.13
2023-05-14T14:48:31.681Z,11.15
2023-05-14T14:51:01.448Z,11.18
2023-05-14T14:53:31.378Z,11.15
2023-05-14T14:56:02.764Z,11.19
2023-05-14T14:58:32.940Z,11.22
2023-05-14T15:01:03.545Z,11.17
2023-05-14T15:03:33.132Z,11.07
2023-05-14T15:06:02.660Z,11.00
2023-05-14T15:08:31.950Z,11.02
2023-05-14T15:11:02.700Z,11.02
2023-05-14T15:13:32.036Z,11.03
2023-05-14T15:16:01.519Z,11.05
2023-05-14T15:18:30.797Z,10.99
2023-05-14T15:21:00.313Z,10.93
2023-05-14T15:23:29.702Z,10.88
2023-05-14T15:25:59.042Z,10.82
2023-05-14T15:28:31.789Z,10.86
2023-05-14T15:31:02.730Z,10.88
2023-05-14T15:33:32.100Z,10.79
2023-05-14T15:36:01.492Z,10.75
2023-05-14T15:38:30.941Z,10.68
2023-05-14T15:41:00.365Z,10.67
2023-05-14T15:43:31.227Z,10.73
2023-05-14T15:46:00.789Z,10.78
2023-05-14T15:50:39.179Z,10.82
2023-05-14T15:53:08.749Z,10.79
2023-05-14T15:55:38.124Z,10.67
2023-05-14T15:58:07.703Z,10.57
2023-05-14T16:00:37.077Z,10.47
2023-05-14T16:03:06.928Z,10.43
2023-05-14T16:05:38.125Z,10.40
2023-05-14T16:08:08.242Z,10.27
2023-05-14T16:10:37.765Z,10.24
2023-05-14T16:13:07.342Z,10.28
2023-05-14T16:15:36.764Z,10.27
2023-05-14T16:18:06.634Z,10.30
2023-05-14T16:20:37.626Z,10.36
2023-05-14T16:23:07.217Z,10.50
2023-05-14T16:25:36.571Z,10.53
2023-05-14T16:28:08.183Z,10.58
2023-05-14T16:30:37.662Z,10.59
2023-05-14T16:33:07.628Z,10.61
2023-05-14T16:35:39.625Z,10.61
2023-05-14T16:38:09.138Z,10.61
2023-05-14T16:40:38.563Z,10.63
2023-05-14T16:43:08.271Z,10.51
2023-05-14T16:45:38.117Z,10.49
2023-05-14T16:48:08.461Z,10.51
2023-05-14T16:50:39.271Z,10.51
2023-05-14T16:53:09.187Z,10.54
2023-05-14T16:55:38.718Z,10.53
2023-05-14T16:58:08.134Z,10.61
2023-05-14T17:00:37.533Z,10.67
2023-05-14T17:03:07.521Z,10.75
2023-05-14T17:05:38.609Z,10.72
2023-05-14T17:08:08.408Z,10.67
2023-05-14T17:10:37.976Z,10.62
2023-05-14T17:13:07.310Z,10.52
2023-05-14T17:15:38.068Z,10.41
2023-05-14T17:18:07.839Z,10.42
2023-05-14T17:20:38.774Z,10.41
2023-05-14T17:23:08.032Z,10.39
2023-05-14T17:25:37.611Z,10.40
2023-05-14T17:28:07.281Z,10.40
2023-05-14T17:30:36.731Z,10.40
2023-05-14T17:33:06.380Z,10.29
2023-05-14T17:35:37.484Z,10.32
2023-05-14T17:38:07.043Z,10.36
2023-05-14T17:40:36.384Z,10.34
2023-05-14T17:43:06.106Z,10.33
2023-05-14T17:45:46.407Z,10.32
2023-05-14T17:48:23.234Z,10.31
2023-05-14T17:50:54.381Z,10.22
2023-05-14T17:53:23.856Z,10.23
2023-05-14T17:55:53.355Z,10.23
2023-05-14T17:58:23.114Z,10.30
2023-05-14T18:00:53.123Z,10.37
2023-05-14T18:03:22.573Z,10.36
2023-05-14T18:05:53.425Z,10.29
2023-05-14T18:08:22.864Z,10.29
2023-05-14T18:10:52.397Z,10.30
2023-05-14T18:13:21.735Z,10.33
2023-05-14T18:15:54.432Z,10.33
2023-05-14T18:18:24.197Z,10.34
2023-05-14T18:20:55.801Z,10.30
2023-05-14T18:23:25.290Z,10.27
2023-05-14T18:25:55.033Z,10.29
2023-05-14T18:28:24.549Z,10.30
2023-05-14T18:30:54.137Z,10.25
2023-05-14T18:33:23.666Z,10.21
2023-05-14T18:35:54.940Z,10.23
2023-05-14T18:38:24.462Z,10.22
2023-05-14T18:40:54.125Z,10.16
2023-05-14T18:43:23.565Z,10.12
2023-05-14T18:45:52.990Z,10.13
2023-05-14T18:50:41.928Z,10.20
2023-05-14T18:53:11.324Z,10.22
2023-05-14T18:55:40.722Z,10.20
2023-05-14T18:58:10.649Z,10.11
2023-05-14T19:00:40.167Z,10.03
2023-05-14T19:03:09.683Z,10.05
2023-05-14T19:05:40.709Z,10.07
2023-05-14T19:08:10.134Z,10.07
2023-05-14T19:10:39.755Z,10.10
2023-05-14T19:13:09.172Z,10.13
2023-05-14T19:15:39.530Z,10.14
2023-05-14T19:18:09.107Z,10.11
2023-05-14T19:20:38.567Z,10.10
2023-05-14T19:23:09.459Z,10.10
2023-05-14T19:25:39.013Z,10.10
2023-05-14T19:28:08.504Z,10.10
2023-05-14T19:30:38.111Z,10.08
2023-05-14T19:33:07.586Z,10.08
2023-05-14T19:35:37.308Z,10.06
2023-05-14T19:38:09.449Z,10.05
2023-05-14T19:40:45.242Z,10.07
2023-05-14T19:43:14.889Z,10.09
2023-05-14T19:45:46.021Z,10.09
2023-05-14T19:48:16.243Z,10.07
2023-05-14T19:50:46.658Z,10.02
2023-05-14T19:53:17.575Z,10.02
2023-05-14T19:55:47.088Z,10.10
2023-05-14T19:58:16.527Z,10.16
2023-05-14T20:00:47.522Z,10.23
2023-05-14T20:03:16.904Z,10.17
2023-05-14T20:05:46.675Z,10.14
2023-05-14T20:08:19.265Z,10.10
2023-05-14T20:10:48.554Z,10.01
2023-05-14T20:13:17.942Z,9.90
2023-05-14T20:15:47.493Z,9.77
2023-05-14T20:18:17.191Z,9.75
2023-05-14T20:20:47.150Z,9.81
2023-05-14T20:23:18.322Z,9.80
2023-05-14T20:25:47.946Z,9.82
2023-05-14T20:28:17.366Z,9.87
2023-05-14T20:30:47.752Z,9.96
2023-05-14T20:33:17.253Z,10.02
2023-05-14T20:35:46.826Z,10.01
2023-05-14T20:38:18.600Z,9.97
2023-05-14T20:40:48.191Z,9.85
2023-05-14T20:43:17.910Z,9.77
2023-05-14T20:45:47.547Z,9.78
2023-05-14T20:48:17.887Z,9.86
2023-05-14T20:50:47.499Z,9.88
2023-05-14T20:53:19.788Z,9.85
2023-05-14T20:55:49.489Z,9.78
2023-05-14T20:58:19.050Z,9.76
2023-05-14T21:00:48.435Z,9.82
2023-05-14T21:03:17.947Z,9.77
2023-05-14T21:05:47.679Z,9.76
2023-05-14T21:08:18.620Z,9.76
2023-05-14T21:10:47.965Z,9.75
2023-05-14T21:13:17.646Z,9.82
2023-05-14T21:15:47.109Z,9.83
2023-05-14T21:18:16.517Z,9.83
2023-05-14T21:20:45.905Z,9.86
2023-05-14T21:23:15.328Z,9.82
2023-05-14T21:25:46.291Z,9.84
2023-05-14T21:28:15.821Z,9.86
2023-05-14T21:30:45.266Z,9.85
2023-05-14T21:33:15.818Z,9.86
2023-05-14T21:35:45.319Z,9.90
2023-05-14T21:38:14.939Z,9.94
2023-05-14T21:40:45.768Z,9.93
2023-05-14T21:43:15.328Z,9.88
2023-05-14T21:45:46.645Z,9.87
2023-05-14T21:50:38.682Z,9.89
2023-05-14T21:53:08.101Z,9.90
2023-05-14T21:55:37.857Z,9.77
2023-05-14T21:58:09.444Z,9.74
2023-05-14T22:00:38.942Z,9.75
2023-05-14T22:03:08.427Z,9.73
2023-05-14T22:05:39.942Z,9.72
2023-05-14T22:08:09.484Z,9.71
2023-05-14T22:10:39.886Z,9.70
2023-05-14T22:13:09.365Z,9.66
2023-05-14T22:15:39.024Z,9.62
2023-05-14T22:18:08.927Z,9.58
2023-05-14T22:20:40.232Z,9.53
2023-05-14T22:23:09.710Z,9.54
2023-05-14T22:25:39.275Z,9.53
2023-05-14T22:28:08.731Z,9.48
2023-05-14T22:30:38.066Z,9.43
2023-05-14T22:33:07.509Z,9.34
2023-05-14T22:35:38.479Z,9.32
2023-05-14T22:38:08.045Z,9.27
2023-05-14T22:40:37.376Z,9.27
2023-05-14T22:43:06.740Z,9.29
2023-05-14T22:45:36.394Z,9.19
2023-05-14T22:48:06.049Z,9.05
2023-05-14T22:50:35.642Z,9.02
2023-05-14T22:53:06.516Z,8.97
2023-05-14T22:55:36.462Z,8.92
2023-05-14T22:58:05.880Z,8.96
2023-05-14T23:00:35.718Z,9.02
2023-05-14T23:03:06.570Z,9.08
2023-05-14T23:05:36.011Z,8.93
2023-05-14T23:08:07.561Z,8.88
2023-05-14T23:10:36.963Z,8.90
2023-05-14T23:13:06.414Z,8.94
2023-05-14T23:15:36.147Z,9.01
2023-05-14T23:18:05.673Z,9.02
2023-05-14T23:20:35.035Z,9.00
2023-05-14T23:23:06.627Z,9.02
2023-05-14T23:25:36.126Z,9.01
2023-05-14T23:28:05.624Z,9.05
2023-05-14T23:30:35.002Z,9.09
2023-05-14T23:33:04.661Z,9.09
2023-05-14T23:35:34.159Z,9.08
2023-05-14T23:38:03.856Z,8.99
2023-05-14T23:40:35.248Z,8.93
2023-05-14T23:43:04.612Z,8.97
2023-05-14T23:45:34.103Z,9.04
2023-05-14T23:48:04.741Z,9.06
2023-05-14T23:50:34.376Z,9.05
2023-05-14T23:53:04.049Z,9.02
2023-05-14T23:55:35.181Z,9.07
2023-05-14T23:58:05.140Z,9.11
